Time;durP1;ratioP1;P1;durP2;ratioP2;P2;SDS_P1;SDS_P2;PMS_P1;PMS_P2;Temp;Humidity;BMP_temperature;BMP_pressure;BME280_temperature;BME280_humidity;BME280_pressure;Samples;Min_cycle;Max_cycle;Signal;HPM_P1;HPM_P2
2021/01/03 15:30:59;;;;;;;54.25;25.70;;;;;;;2.27;100.00;98660.11;4512428;79;85170;-84
2021/01/03 15:37:23;;;;;;;51.60;26.27;;;;;;;2.31;100.00;98674.67;4337385;81;28576;-83
2021/01/03 15:43:34;;;;;;;63.83;30.32;;;;;;;2.35;100.00;98666.64;4209437;83;28674;-82
2021/01/03 15:49:38;;;;;;;63.42;31.45;;;;;;;2.38;100.00;98665.45;4292925;81;28552;-83
2021/01/03 15:55:43;;;;;;;57.20;29.12;;;;;;;2.29;100.00;98663.92;4194137;84;28642;-79
2021/01/03 16:01:45;;;;;;;60.73;29.27;;;;;;;2.12;100.00;98656.69;4291855;83;28662;-80
2021/01/03 16:07:48;;;;;;;53.13;26.25;;;;;;;2.04;100.00;98652.31;4258457;81;28600;-80
2021/01/03 16:13:51;;;;;;;56.40;26.87;;;;;;;2.02;100.00;98647.67;4271617;81;28556;-81
2021/01/03 16:19:56;;;;;;;55.38;27.02;;;;;;;2.01;100.00;98644.70;4291332;83;28582;-82
2021/01/03 16:26:16;;;;;;;55.70;27.52;;;;;;;2.03;100.00;98642.69;4334321;81;28969;-82
2021/01/03 16:32:45;;;;;;;56.85;29.23;;;;;;;2.07;100.00;98638.16;4365981;81;28642;-82
2021/01/03 16:39:09;;;;;;;57.05;26.52;;;;;;;1.90;100.00;98632.23;4329316;81;28636;-80
2021/01/03 16:45:52;;;;;;;49.45;25.92;;;;;;;1.90;100.00;98638.06;4301508;82;28595;-83
2021/01/03 16:52:09;;;;;;;60.25;28.57;;;;;;;1.99;100.00;98652.03;4299935;81;28552;-84
2021/01/03 16:58:46;;;;;;;54.83;26.85;;;;;;;2.24;100.00;98648.56;4345776;81;28595;-83
2021/01/03 17:11:34;;;;;;;54.50;28.25;;;;;;;2.17;100.00;98647.66;4622039;76;79000;-83
2021/01/03 17:17:54;;;;;;;58.65;28.92;;;;;;;2.19;100.00;98652.30;4515302;79;28594;-84
2021/01/03 17:24:25;;;;;;;51.15;25.92;;;;;;;2.11;100.00;98655.05;4499894;78;28580;-83
2021/01/03 17:30:39;;;;;;;57.95;29.40;;;;;;;1.95;100.00;98652.90;4487747;78;28562;-83
2021/01/03 17:37:10;;;;;;;57.83;28.70;;;;;;;2.19;100.00;98665.55;4509473;78;28647;-80
2021/01/03 17:43:12;;;;;;;62.70;31.68;;;;;;;2.04;100.00;98652.31;4494248;78;28535;-81
2021/01/03 17:49:37;;;;;;;58.05;27.77;;;;;;;2.19;100.00;98645.14;4485222;78;28578;-80
2021/01/03 17:55:41;;;;;;;54.20;27.98;;;;;;;2.07;100.00;98655.91;4488728;78;28568;-81
2021/01/03 18:01:44;;;;;;;56.83;27.98;;;;;;;2.10;100.00;98656.86;4492743;78;28567;-81
2021/01/03 18:07:48;;;;;;;52.30;26.37;;;;;;;2.21;100.00;98664.34;4507576;78;28542;-79
2021/01/03 18:13:50;;;;;;;56.28;26.85;;;;;;;2.33;100.00;98661.20;4514384;78;29000;-79
2021/01/03 18:19:52;;;;;;;54.80;26.68;;;;;;;2.26;100.00;98670.94;4476073;78;28558;-78
2021/01/03 18:25:54;;;;;;;54.77;27.27;;;;;;;2.50;100.00;98677.22;4508732;78;28614;-79
2021/01/03 18:31:58;;;;;;;58.98;27.67;;;;;;;2.53;100.00;98683.99;4492886;78;28681;-81
2021/01/03 18:38:03;;;;;;;57.05;27.50;;;;;;;2.34;100.00;98698.17;4504134;78;28603;-79
2021/01/03 18:44:06;;;;;;;47.38;24.27;;;;;;;2.37;100.00;98699.64;4508210;77;28534;-81
2021/01/03 18:50:12;;;;;;;49.95;24.20;;;;;;;2.42;100.00;98703.86;4506989;78;28542;-80
2021/01/03 18:56:27;;;;;;;56.77;27.97;;;;;;;2.47;100.00;98705.47;4530673;77;47632;-81
2021/01/03 19:02:32;;;;;;;54.67;26.42;;;;;;;2.27;100.00;98708.39;4511332;78;28621;-77
2021/01/03 19:08:34;;;;;;;60.88;28.30;;;;;;;2.34;100.00;98718.55;4508769;78;28613;-78
2021/01/03 19:14:38;;;;;;;55.70;26.80;;;;;;;2.13;100.00;98727.28;4503174;78;28550;-78
2021/01/03 19:20:41;;;;;;;55.38;27.35;;;;;;;2.12;100.00;98742.88;4387265;80;28615;-79
2021/01/03 19:26:44;;;;;;;46.83;25.35;;;;;;;2.06;100.00;98735.97;4324707;81;28535;-78
2021/01/03 19:32:47;;;;;;;45.98;23.25;;;;;;;2.08;100.00;98739.77;4372145;80;28578;-79
2021/01/03 19:38:50;;;;;;;51.25;25.20;;;;;;;2.20;100.00;98753.41;4371737;81;28587;-79
2021/01/03 19:44:53;;;;;;;51.48;25.00;;;;;;;2.26;100.00;98759.80;4361829;81;28567;-78
2021/01/03 19:50:55;;;;;;;52.55;25.25;;;;;;;2.10;100.00;98753.66;4377470;81;28569;-79
2021/01/03 19:56:58;;;;;;;57.60;25.92;;;;;;;2.12;100.00;98752.97;4374606;80;28689;-77
2021/01/03 20:03:00;;;;;;;46.05;23.85;;;;;;;2.27;100.00;98746.86;4376509;81;28630;-77
2021/01/03 20:09:05;;;;;;;55.67;25.00;;;;;;;2.42;100.00;98750.30;4364194;81;28597;-78
2021/01/03 20:15:10;;;;;;;47.80;24.65;;;;;;;2.43;100.00;98762.55;4359496;80;28578;-79
2021/01/03 20:21:14;;;;;;;64.17;31.93;;;;;;;2.27;100.00;98756.14;4373546;80;28565;-78
2021/01/03 20:27:20;;;;;;;64.82;34.08;;;;;;;2.36;100.00;98773.61;4338949;80;28575;-79
2021/01/03 20:33:22;;;;;;;67.67;34.38;;;;;;;2.26;100.00;98791.64;4373007;81;28551;-78
2021/01/03 20:39:27;;;;;;;69.00;34.48;;;;;;;2.19;100.00;98796.34;4370150;81;28543;-81
2021/01/03 20:45:29;;;;;;;69.12;35.05;;;;;;;2.03;100.00;98789.87;4375922;81;28603;-80
2021/01/03 20:51:31;;;;;;;68.80;34.25;;;;;;;2.21;100.00;98787.69;4367062;80;28598;-76
2021/01/03 20:57:33;;;;;;;66.87;33.90;;;;;;;2.11;100.00;98795.61;4374339;81;28630;-80
2021/01/03 21:03:38;;;;;;;70.20;34.75;;;;;;;2.02;100.00;98800.16;4377156;80;28641;-81
2021/01/03 21:09:42;;;;;;;73.20;37.42;;;;;;;1.70;100.00;98800.30;4379124;80;28561;-85
2021/01/03 21:15:45;;;;;;;76.70;38.98;;;;;;;1.68;100.00;98800.98;4377095;80;28557;-83
2021/01/03 21:21:47;;;;;;;71.90;36.38;;;;;;;1.76;100.00;98808.84;4369335;80;28563;-83
2021/01/03 21:28:11;;;;;;;80.32;39.08;;;;;;;1.58;100.00;98811.02;4371460;80;28602;-80
2021/01/03 21:34:26;;;;;;;69.77;35.30;;;;;;;1.45;100.00;98812.41;4378028;80;28540;-84
2021/01/03 21:41:00;;;;;;;70.40;36.05;;;;;;;1.42;100.00;98822.56;4364302;80;28574;-84
2021/01/03 21:47:24;;;;;;;68.67;34.70;;;;;;;1.55;100.00;98821.95;4356326;80;28545;-83
2021/01/03 21:53:46;;;;;;;71.90;36.23;;;;;;;1.56;100.00;98829.73;4367436;80;28646;-83
2021/01/03 22:00:23;;;;;;;73.52;34.75;;;;;;;1.53;100.00;98832.74;4381167;80;44950;-81
2021/01/03 22:07:02;;;;;;;70.87;36.98;;;;;;;1.44;100.00;98845.20;4363059;80;28543;-81
2021/01/03 22:13:29;;;;;;;71.30;35.48;;;;;;;1.52;100.00;98853.10;4350088;80;28587;-80
2021/01/03 22:20:10;;;;;;;91.22;43.70;;;;;;;1.41;100.00;98851.35;4385667;80;28659;-81
2021/01/03 22:26:18;;;;;;;76.40;36.63;;;;;;;1.84;100.00;98867.63;4311570;80;28545;-80
2021/01/03 22:32:24;;;;;;;77.37;38.28;;;;;;;1.93;100.00;98866.55;4375366;80;28607;-81
2021/01/03 22:38:32;;;;;;;85.65;41.18;;;;;;;1.88;100.00;98862.78;4383429;80;28722;-81
2021/01/03 22:44:55;;;;;;;77.37;37.88;;;;;;;2.06;100.00;98867.77;4374494;80;28550;-82
2021/01/03 22:51:09;;;;;;;80.62;38.08;;;;;;;2.00;100.00;98871.12;4361394;80;28595;-78
2021/01/03 22:57:29;;;;;;;76.02;37.75;;;;;;;1.78;100.00;98862.53;4315825;81;28585;-83
2021/01/03 23:04:03;;;;;;;73.47;37.38;;;;;;;1.87;100.00;98864.60;4385790;79;28546;-81
2021/01/03 23:10:17;;;;;;;87.25;42.38;;;;;;;1.88;100.00;98861.47;4262010;79;44463;-82
2021/01/03 23:16:57;;;;;;;83.90;40.73;;;;;;;1.69;100.00;98856.13;4386245;79;28617;-82
2021/01/03 23:23:05;;;;;;;83.10;40.92;;;;;;;1.71;100.00;98850.14;4388286;79;28605;-82
2021/01/03 23:29:19;;;;;;;77.22;38.08;;;;;;;1.78;100.00;98841.81;4386699;79;28569;-81
2021/01/03 23:35:23;;;;;;;95.95;44.40;;;;;;;1.67;100.00;98845.72;4319897;81;28567;-82
2021/01/03 23:41:30;;;;;;;99.30;46.18;;;;;;;1.76;100.00;98853.09;4376555;79;28539;-83
2021/01/03 23:48:01;;;;;;;95.95;44.98;;;;;;;1.73;100.00;98830.94;4388589;80;28624;-83
2021/01/03 23:54:34;;;;;;;105.95;47.75;;;;;;;1.92;100.00;98837.03;4343853;79;28585;-83
